Michel Dsr — FLTE — position and weather

sailwx.info

Track history (hours):
 
Tides and Currents Weather Stations Pressure Air Temp Water Temp Dewpoint Dewpoint Depression Visibility Wind Speed Wind Dir Waves Ship Positions

Michel Dsr

Last reported at 2015-May-04 06:20 UTC. Time now 2015-May-04 21:08 UTC.
Position N 47°18' W 002°07'.

Length 80 m; draft 6 m.

Type: Dredging. MMSI: 228344700.

Date/timePositionNaut miles runAvg speedWind from/ knotsBaromVisibWave heightAir tempDewpointWater temp
2015-May-04 06:20N 47°18' W 002°07'0 0.0
2015-May-03 10:28N 47°18' W 002°07'0 0.0
2015-May-03 09:33N 47°18' W 002°07'0 0.0
2015-May-02 03:10N 47°18' W 002°07'0 0.0
2015-May-02 02:27N 47°18' W 002°07'  
2015-Apr-25 07:14N 47°18' W 002°07'0 0.0
2015-Apr-25 06:26N 47°18' W 002°07'0 0.0
2015-Apr-25 04:33N 47°18' W 002°07'0 0.0
2015-Apr-25 03:33N 47°18' W 002°07'0 0.0
2015-Apr-25 02:33N 47°18' W 002°07'5 2.3
2015-Apr-25 00:18N 47°15' W 002°13'8 9.6
2015-Apr-24 23:25N 47°08' W 002°20'4 0.8
2015-Apr-24 18:22N 47°12' W 002°17'9 7.3
2015-Apr-24 17:05N 47°18' W 002°07'12 1.3
2015-Apr-24 08:21N 47°10' W 002°19'12 6.4
2015-Apr-24 06:32N 47°18' W 002°07'  
Track history (hours):
 
Tides and Currents Weather Stations Pressure Air Temp Water Temp Dewpoint Dewpoint Depression Visibility Wind Speed Wind Dir Waves Ship Positions

Michel Dsr

Last reported at 2015-May-04 06:20 UTC. Time now 2015-May-04 21:08 UTC.
Position N 47°18' W 002°07'.

Length 80 m; draft 6 m.

Type: Dredging. MMSI: 228344700.

Date/timePositionNaut miles runAvg speedWind from/ knotsBaromVisibWave heightAir tempDewpointWater temp
2015-May-04 06:20N 47°18' W 002°07'0 0.0
2015-May-03 10:28N 47°18' W 002°07'0 0.0
2015-May-03 09:33N 47°18' W 002°07'0 0.0
2015-May-02 03:10N 47°18' W 002°07'0 0.0
2015-May-02 02:27N 47°18' W 002°07'  
2015-Apr-25 07:14N 47°18' W 002°07'0 0.0
2015-Apr-25 06:26N 47°18' W 002°07'0 0.0
2015-Apr-25 04:33N 47°18' W 002°07'0 0.0
2015-Apr-25 03:33N 47°18' W 002°07'0 0.0
2015-Apr-25 02:33N 47°18' W 002°07'5 2.3
2015-Apr-25 00:18N 47°15' W 002°13'8 9.6
2015-Apr-24 23:25N 47°08' W 002°20'4 0.8
2015-Apr-24 18:22N 47°12' W 002°17'9 7.3
2015-Apr-24 17:05N 47°18' W 002°07'12 1.3
2015-Apr-24 08:21N 47°10' W 002°19'12 6.4
2015-Apr-24 06:32N 47°18' W 002°07'  

Dump ship's entire track history